createdAt,value
2018-09-18T00:00:02.131Z,58.70
2018-09-18T00:02:36.460Z,57.10
2018-09-18T00:05:10.779Z,57.70
2018-09-18T00:07:45.015Z,58.00
2018-09-18T00:10:19.224Z,59.00
2018-09-18T00:12:53.465Z,58.40
2018-09-18T00:15:27.812Z,57.70
2018-09-18T00:18:02.085Z,56.80
2018-09-18T00:20:36.295Z,58.40
2018-09-18T00:23:10.564Z,57.40
2018-09-18T00:25:44.852Z,60.30
2018-09-18T00:28:19.160Z,58.10
2018-09-18T00:30:53.479Z,58.80
2018-09-18T00:33:27.664Z,59.30
2018-09-18T00:36:02.082Z,59.60
2018-09-18T00:38:36.247Z,58.40
2018-09-18T00:41:10.508Z,58.50
2018-09-18T00:43:44.663Z,58.20
2018-09-18T00:46:18.963Z,58.10
2018-09-18T00:48:53.248Z,56.30
2018-09-18T00:51:27.616Z,57.10
2018-09-18T00:54:01.935Z,56.00
2018-09-18T00:56:36.284Z,56.30
2018-09-18T00:59:10.495Z,57.90
2018-09-18T01:01:44.736Z,56.40
2018-09-18T01:04:19.097Z,57.20
2018-09-18T01:06:53.456Z,58.10
2018-09-18T01:09:27.804Z,57.10
2018-09-18T01:12:02.119Z,56.70
2018-09-18T01:14:37.112Z,56.80
2018-09-18T01:17:11.295Z,57.20
2018-09-18T01:19:45.712Z,58.30
2018-09-18T01:22:20.057Z,58.20
2018-09-18T01:24:54.413Z,56.80
2018-09-18T01:27:28.731Z,57.30
2018-09-18T01:30:03.031Z,57.40
2018-09-18T01:32:37.248Z,57.70
2018-09-18T01:35:11.593Z,58.60
2018-09-18T01:37:45.810Z,58.10
2018-09-18T01:40:20.083Z,57.00
2018-09-18T01:42:54.387Z,57.90
2018-09-18T01:45:28.718Z,57.10
2018-09-18T01:48:03.211Z,57.20
2018-09-18T01:50:37.555Z,58.60
2018-09-18T01:53:12.489Z,58.80
2018-09-18T01:55:46.919Z,57.60
2018-09-18T01:58:21.277Z,58.50
2018-09-18T02:00:55.512Z,58.60
2018-09-18T02:03:29.829Z,58.00
2018-09-18T02:06:04.056Z,58.30
2018-09-18T02:08:38.276Z,57.80
2018-09-18T02:11:12.691Z,57.70
2018-09-18T02:13:46.856Z,56.60
2018-09-18T02:16:21.140Z,57.50
2018-09-18T02:18:55.455Z,56.60
2018-09-18T02:21:29.776Z,58.40
2018-09-18T02:24:03.989Z,57.90
2018-09-18T02:26:38.331Z,57.50
2018-09-18T02:29:12.555Z,57.50
2018-09-18T02:31:46.767Z,58.50
2018-09-18T02:34:20.959Z,57.60
2018-09-18T02:36:55.184Z,58.50
2018-09-18T02:39:29.444Z,58.90
2018-09-18T02:42:03.595Z,57.80
2018-09-18T02:44:37.932Z,58.10
2018-09-18T02:47:12.252Z,58.00
2018-09-18T02:49:46.628Z,58.30
2018-09-18T02:52:20.967Z,57.50
2018-09-18T02:54:55.203Z,58.30
2018-09-18T02:57:29.514Z,58.30
2018-09-18T03:00:03.912Z,57.90
2018-09-18T03:02:38.115Z,58.40
2018-09-18T03:05:12.316Z,58.90
2018-09-18T03:07:46.628Z,58.70
2018-09-18T03:10:20.825Z,57.90
2018-09-18T03:12:55.065Z,57.20
2018-09-18T03:15:29.427Z,57.40
2018-09-18T03:18:03.620Z,58.50
2018-09-18T03:20:37.992Z,57.20
2018-09-18T03:23:12.352Z,57.40
2018-09-18T03:25:46.663Z,58.00
2018-09-18T03:28:20.921Z,57.20
2018-09-18T03:30:55.253Z,58.10
2018-09-18T03:33:29.676Z,58.00
2018-09-18T03:36:04.204Z,57.30
2018-09-18T03:38:38.483Z,58.10
2018-09-18T03:41:12.712Z,58.50
2018-09-18T03:43:47.024Z,57.30
2018-09-18T03:46:21.273Z,57.40
2018-09-18T03:48:55.900Z,57.20
2018-09-18T03:51:30.108Z,57.50
2018-09-18T03:54:04.731Z,57.20
2018-09-18T03:56:39.043Z,57.10
2018-09-18T03:59:13.244Z,57.80
2018-09-18T04:01:47.468Z,57.50
2018-09-18T04:04:21.781Z,57.50
2018-09-18T04:06:56.336Z,57.30
2018-09-18T04:09:30.560Z,57.10
2018-09-18T04:12:04.861Z,57.00
2018-09-18T04:14:39.293Z,56.90
2018-09-18T04:17:13.702Z,56.80
2018-09-18T04:19:47.945Z,56.70
2018-09-18T04:22:22.311Z,56.60
2018-09-18T04:24:56.677Z,56.50
2018-09-18T04:27:30.987Z,56.50
2018-09-18T04:30:05.303Z,56.50
2018-09-18T04:32:39.581Z,56.40
2018-09-18T04:35:13.896Z,56.40
2018-09-18T04:37:48.282Z,56.40
2018-09-18T04:40:22.533Z,56.30
2018-09-18T04:42:56.970Z,56.40
2018-09-18T04:45:31.256Z,56.40
2018-09-18T04:48:05.733Z,56.30
2018-09-18T04:50:40.065Z,56.30
2018-09-18T04:53:14.343Z,56.30
2018-09-18T04:55:48.528Z,56.30
2018-09-18T04:58:22.889Z,56.30
2018-09-18T05:00:57.291Z,56.40
2018-09-18T05:03:31.845Z,56.30
2018-09-18T05:06:06.459Z,56.30
2018-09-18T05:08:40.729Z,56.40
2018-09-18T05:11:15.076Z,56.40
2018-09-18T05:13:49.402Z,56.60
2018-09-18T05:16:23.749Z,56.50
2018-09-18T05:18:58.016Z,56.60
2018-09-18T05:21:32.295Z,56.60
2018-09-18T05:24:06.717Z,57.20
2018-09-18T05:26:41.232Z,56.70
2018-09-18T05:29:15.549Z,56.70
2018-09-18T05:31:49.924Z,56.80
2018-09-18T05:34:24.211Z,56.90
2018-09-18T05:36:58.596Z,56.90
2018-09-18T05:39:32.877Z,57.00
2018-09-18T05:42:07.278Z,57.00
2018-09-18T05:44:41.402Z,57.00
2018-09-18T05:47:15.736Z,57.00
2018-09-18T05:49:50.176Z,57.00
2018-09-18T05:52:24.492Z,57.10
2018-09-18T05:54:58.799Z,57.10
2018-09-18T05:57:33.191Z,57.10
2018-09-18T06:00:07.639Z,57.10
2018-09-18T06:02:41.960Z,57.10
2018-09-18T06:05:16.285Z,57.90
2018-09-18T06:07:50.492Z,62.40
2018-09-18T06:10:25.273Z,64.80
2018-09-18T06:12:59.487Z,66.60
2018-09-18T06:15:33.681Z,67.50
2018-09-18T06:18:08.085Z,66.30
2018-09-18T06:20:42.908Z,68.00
2018-09-18T06:23:17.372Z,68.40
2018-09-18T06:25:51.606Z,70.30
2018-09-18T06:28:25.904Z,68.80
2018-09-18T06:31:00.192Z,69.00
2018-09-18T06:33:34.399Z,69.30
2018-09-18T06:36:08.600Z,69.90
2018-09-18T06:38:43.056Z,69.60
2018-09-18T06:41:17.333Z,68.20
2018-09-18T06:43:51.732Z,66.00
2018-09-18T06:46:25.960Z,64.00
2018-09-18T06:49:00.324Z,64.10
2018-09-18T06:51:34.652Z,64.40
2018-09-18T06:54:08.828Z,64.50
2018-09-18T06:56:43.175Z,62.70
2018-09-18T06:59:17.499Z,61.80
2018-09-18T07:01:52.024Z,62.30
2018-09-18T07:04:26.204Z,61.80
2018-09-18T07:07:00.573Z,62.00
2018-09-18T07:09:34.856Z,61.20
2018-09-18T07:12:09.195Z,59.50
2018-09-18T07:14:44.052Z,58.00
2018-09-18T07:17:18.319Z,58.30
2018-09-18T07:19:52.479Z,58.40
2018-09-18T07:22:26.795Z,58.50
2018-09-18T07:25:01.185Z,58.90
2018-09-18T07:27:35.724Z,59.50
2018-09-18T07:30:10.392Z,59.10
2018-09-18T07:32:44.784Z,58.40
2018-09-18T07:35:19.080Z,57.00
2018-09-18T07:37:53.331Z,57.30
2018-09-18T07:40:27.500Z,56.40
2018-09-18T07:43:01.777Z,55.90
2018-09-18T07:45:36.059Z,56.00
2018-09-18T07:48:10.377Z,55.90
2018-09-18T07:50:45.167Z,55.40
2018-09-18T07:53:19.335Z,54.80
2018-09-18T07:55:53.657Z,54.40
2018-09-18T07:58:28.160Z,54.00
2018-09-18T08:01:02.580Z,53.80
2018-09-18T08:03:36.857Z,53.80
2018-09-18T08:06:11.177Z,53.80
2018-09-18T08:08:46.148Z,52.90
2018-09-18T08:11:20.461Z,52.40
2018-09-18T08:13:54.748Z,51.40
2018-09-18T08:16:29.064Z,50.80
2018-09-18T08:19:03.496Z,51.10
2018-09-18T08:21:37.763Z,49.80
2018-09-18T08:24:12.004Z,50.50
2018-09-18T08:26:46.340Z,49.30
2018-09-18T08:29:20.592Z,49.30
2018-09-18T08:31:54.960Z,48.90
2018-09-18T08:34:29.268Z,48.40
2018-09-18T08:37:03.585Z,47.70
2018-09-18T08:39:37.958Z,47.80
2018-09-18T08:42:12.314Z,47.60
2018-09-18T08:44:46.846Z,47.40
2018-09-18T08:47:21.084Z,46.30
2018-09-18T08:49:55.221Z,46.50
2018-09-18T08:52:29.608Z,46.10
2018-09-18T08:55:03.981Z,46.00
2018-09-18T08:57:38.205Z,45.40
2018-09-18T09:00:12.481Z,45.60
2018-09-18T09:02:47.320Z,45.40
2018-09-18T09:05:21.515Z,45.20
2018-09-18T09:07:55.920Z,45.00
2018-09-18T09:10:30.183Z,45.10
2018-09-18T09:13:04.413Z,44.70
2018-09-18T09:15:38.766Z,44.50
2018-09-18T09:18:12.912Z,44.30
2018-09-18T09:20:47.255Z,44.10
2018-09-18T09:23:21.540Z,43.70
2018-09-18T09:25:55.728Z,43.80
2018-09-18T09:28:30.016Z,43.80
2018-09-18T09:31:04.416Z,43.60
2018-09-18T09:33:38.718Z,42.90
2018-09-18T09:36:12.988Z,43.40
2018-09-18T09:38:47.422Z,43.50
2018-09-18T09:41:21.717Z,42.70
2018-09-18T09:43:56.068Z,42.40
2018-09-18T09:46:30.400Z,42.40
2018-09-18T09:49:04.784Z,41.50
2018-09-18T09:51:39.128Z,41.90
2018-09-18T09:54:13.416Z,42.50
2018-09-18T09:56:47.778Z,43.50
2018-09-18T09:59:22.001Z,43.40
2018-09-18T10:02:01.810Z,43.90
2018-09-18T10:04:36.124Z,43.50
2018-09-18T10:07:10.304Z,42.90
2018-09-18T10:09:44.604Z,43.00
2018-09-18T10:12:18.765Z,43.40
2018-09-18T10:14:53.073Z,42.80
2018-09-18T10:17:27.485Z,42.60
2018-09-18T10:20:01.648Z,43.40
2018-09-18T10:22:36.128Z,42.80
2018-09-18T10:25:10.444Z,43.90
2018-09-18T10:27:44.792Z,44.60
2018-09-18T10:30:19.089Z,44.80
2018-09-18T10:32:53.314Z,44.10
2018-09-18T10:35:27.547Z,45.00
2018-09-18T10:38:01.852Z,44.80
2018-09-18T10:40:36.159Z,45.20
2018-09-18T10:43:10.819Z,44.70
2018-09-18T10:45:45.121Z,45.60
2018-09-18T10:48:19.487Z,46.00
2018-09-18T10:50:53.852Z,45.20
2018-09-18T10:53:28.140Z,44.50
2018-09-18T10:56:02.539Z,44.20
2018-09-18T10:58:36.770Z,45.80
2018-09-18T11:01:11.304Z,46.20
2018-09-18T11:03:45.631Z,45.30
2018-09-18T11:06:19.900Z,47.30
2018-09-18T11:08:54.267Z,47.40
2018-09-18T11:11:28.537Z,46.40
2018-09-18T11:14:06.084Z,46.30
2018-09-18T11:16:40.873Z,48.20
2018-09-18T11:19:15.179Z,47.90
2018-09-18T11:21:49.423Z,48.60
2018-09-18T11:24:23.791Z,48.40
2018-09-18T11:26:57.926Z,48.60
2018-09-18T11:29:32.243Z,49.10
2018-09-18T11:32:06.539Z,49.00
2018-09-18T11:34:40.812Z,47.70
2018-09-18T11:37:15.144Z,49.40
2018-09-18T11:39:49.672Z,50.90
2018-09-18T11:42:24.000Z,50.30
2018-09-18T11:44:58.312Z,49.10
2018-09-18T11:47:32.484Z,50.80
2018-09-18T11:50:06.779Z,51.70
2018-09-18T11:52:41.181Z,51.20
2018-09-18T11:55:15.409Z,50.00
2018-09-18T11:57:49.827Z,49.00
2018-09-18T12:00:24.012Z,48.50
2018-09-18T12:02:58.398Z,49.00
2018-09-18T12:05:32.706Z,49.00
2018-09-18T12:08:06.996Z,48.30
2018-09-18T12:10:41.233Z,48.50
2018-09-18T12:13:15.468Z,48.20
2018-09-18T12:15:49.659Z,48.90
2018-09-18T12:18:23.873Z,48.60
2018-09-18T12:20:58.174Z,49.30
2018-09-18T12:23:32.687Z,49.60
2018-09-18T12:26:06.931Z,49.50
2018-09-18T12:28:41.187Z,49.40
2018-09-18T12:31:15.660Z,49.60
2018-09-18T12:33:49.991Z,47.70
2018-09-18T12:36:24.157Z,47.10
2018-09-18T12:38:59.769Z,47.30
2018-09-18T12:41:34.806Z,47.30
2018-09-18T12:44:09.541Z,47.60
2018-09-18T12:46:43.783Z,46.90
2018-09-18T12:49:19.261Z,47.70
2018-09-18T12:51:54.551Z,46.40
2018-09-18T12:54:29.727Z,46.30
2018-09-18T12:57:05.422Z,45.80
2018-09-18T12:59:40.119Z,46.60
2018-09-18T13:02:14.446Z,46.80
2018-09-18T13:04:48.712Z,47.50
2018-09-18T13:07:23.014Z,47.20
2018-09-18T13:09:57.373Z,47.10
2018-09-18T13:12:31.688Z,46.70
2018-09-18T13:15:06.397Z,47.40
2018-09-18T13:17:40.661Z,46.20
2018-09-18T13:20:14.786Z,46.90
2018-09-18T13:22:49.160Z,46.90
2018-09-18T13:25:23.445Z,47.50
2018-09-18T13:27:57.798Z,48.20
2018-09-18T13:30:32.135Z,48.20
2018-09-18T13:33:06.276Z,47.80
2018-09-18T13:35:40.561Z,48.30
2018-09-18T13:38:14.864Z,48.30
2018-09-18T13:40:49.078Z,47.10
2018-09-18T13:43:23.308Z,47.30
2018-09-18T13:45:57.525Z,46.60
2018-09-18T13:48:31.836Z,46.90
2018-09-18T13:51:06.073Z,47.20
2018-09-18T13:53:40.213Z,47.10
2018-09-18T13:56:14.529Z,46.60
2018-09-18T13:58:48.900Z,47.50
2018-09-18T14:01:23.279Z,47.20
2018-09-18T14:03:57.569Z,46.80
2018-09-18T14:06:31.832Z,46.90
2018-09-18T14:09:07.224Z,43.20
2018-09-18T14:11:41.442Z,43.20
2018-09-18T14:14:15.775Z,43.60
2018-09-18T14:16:49.980Z,41.70
2018-09-18T14:19:24.192Z,41.90
2018-09-18T14:21:59.140Z,44.50
2018-09-18T14:24:33.348Z,42.20
2018-09-18T14:27:07.851Z,43.10
2018-09-18T14:29:42.160Z,41.80
2018-09-18T14:32:16.344Z,43.10
2018-09-18T14:34:51.157Z,44.00
2018-09-18T14:37:25.260Z,43.70
2018-09-18T14:39:59.512Z,43.00
2018-09-18T14:42:33.682Z,43.50
2018-09-18T14:45:08.045Z,41.20
2018-09-18T14:47:42.267Z,40.40
2018-09-18T14:50:16.652Z,41.60
2018-09-18T14:52:50.833Z,41.80
2018-09-18T14:55:25.115Z,42.50
2018-09-18T14:57:59.472Z,42.50
2018-09-18T15:00:33.772Z,41.60
2018-09-18T15:03:07.947Z,43.30
2018-09-18T15:05:42.268Z,43.20
2018-09-18T15:08:16.604Z,43.00
2018-09-18T15:10:51.040Z,43.00
2018-09-18T15:13:25.240Z,43.80
2018-09-18T15:15:59.424Z,42.90
2018-09-18T15:18:33.668Z,42.90
2018-09-18T15:21:07.960Z,42.10
2018-09-18T15:23:42.336Z,42.10
2018-09-18T15:26:16.640Z,42.30
2018-09-18T15:28:51.078Z,42.60
2018-09-18T15:31:25.416Z,43.20
2018-09-18T15:33:59.737Z,43.20
2018-09-18T15:36:34.085Z,44.30
2018-09-18T15:39:08.955Z,44.20
2018-09-18T15:41:43.298Z,44.20
2018-09-18T15:44:17.652Z,44.60
2018-09-18T15:46:51.938Z,44.20
2018-09-18T15:49:26.150Z,44.60
2018-09-18T15:52:00.447Z,45.20
2018-09-18T15:54:34.808Z,43.80
2018-09-18T15:57:09.121Z,44.30
2018-09-18T15:59:43.347Z,44.50
2018-09-18T16:02:17.524Z,44.00
2018-09-18T16:04:51.791Z,43.90
2018-09-18T16:07:26.010Z,43.70
2018-09-18T16:10:00.409Z,44.40
2018-09-18T16:12:34.712Z,44.20
2018-09-18T16:15:09.063Z,44.60
2018-09-18T16:17:43.328Z,44.90
2018-09-18T16:20:17.624Z,43.90
2018-09-18T16:22:51.956Z,44.90
2018-09-18T16:25:26.273Z,44.40
2018-09-18T16:28:00.560Z,45.20
2018-09-18T16:30:34.773Z,45.30
2018-09-18T16:33:09.063Z,45.30
2018-09-18T16:35:43.369Z,44.90
2018-09-18T16:38:17.632Z,45.90
2018-09-18T16:40:51.996Z,45.40
2018-09-18T16:43:26.331Z,46.00
2018-09-18T16:46:00.652Z,46.10
2018-09-18T16:48:34.893Z,46.00
2018-09-18T16:51:09.223Z,46.30
2018-09-18T16:53:43.430Z,46.50
2018-09-18T16:56:17.753Z,46.70
2018-09-18T16:58:52.012Z,47.00
2018-09-18T17:01:26.354Z,47.10
2018-09-18T17:04:00.584Z,46.80
2018-09-18T17:06:34.839Z,47.10
2018-09-18T17:09:09.480Z,47.40
2018-09-18T17:11:43.813Z,47.40
2018-09-18T17:14:18.470Z,47.80
2018-09-18T17:16:52.680Z,47.80
2018-09-18T17:19:27.835Z,47.50
2018-09-18T17:22:02.160Z,48.10
2018-09-18T17:24:36.467Z,47.80
2018-09-18T17:27:10.523Z,46.90
2018-09-18T17:29:44.852Z,47.40
2018-09-18T17:32:19.156Z,47.90
2018-09-18T17:34:53.492Z,48.10
2018-09-18T17:37:27.749Z,48.00
2018-09-18T17:40:02.124Z,46.90
2018-09-18T17:42:36.415Z,48.60
2018-09-18T17:45:10.790Z,47.70
2018-09-18T17:47:45.126Z,47.60
2018-09-18T17:50:19.506Z,48.10
2018-09-18T17:52:53.812Z,48.20
2018-09-18T17:55:28.128Z,47.40
2018-09-18T17:58:02.448Z,47.70
2018-09-18T18:00:36.786Z,48.20
2018-09-18T18:03:11.047Z,48.00
2018-09-18T18:05:45.440Z,48.00
2018-09-18T18:08:19.685Z,47.60
2018-09-18T18:10:53.983Z,47.70
2018-09-18T18:13:28.410Z,46.40
2018-09-18T18:16:02.819Z,47.10
2018-09-18T18:18:37.187Z,47.00
2018-09-18T18:21:11.521Z,46.40
2018-09-18T18:23:45.865Z,46.40
2018-09-18T18:26:20.196Z,46.20
2018-09-18T18:28:54.541Z,46.10
2018-09-18T18:31:28.724Z,46.30
2018-09-18T18:34:02.930Z,47.00
2018-09-18T18:36:37.259Z,47.20
2018-09-18T18:39:11.564Z,47.10
2018-09-18T18:41:45.885Z,47.10
2018-09-18T18:44:20.276Z,47.70
2018-09-18T18:46:54.621Z,47.90
2018-09-18T18:49:33.048Z,48.40
2018-09-18T18:52:07.954Z,48.50
2018-09-18T18:54:42.295Z,48.40
2018-09-18T18:57:16.523Z,48.90
2018-09-18T18:59:50.900Z,49.10
2018-09-18T19:02:25.236Z,49.10
2018-09-18T19:04:59.526Z,49.30
2018-09-18T19:07:33.920Z,49.40
2018-09-18T19:10:08.911Z,49.40
2018-09-18T19:12:43.071Z,49.60
2018-09-18T19:15:17.409Z,49.70
2018-09-18T19:17:51.608Z,50.00
2018-09-18T19:20:25.967Z,50.10
2018-09-18T19:23:00.342Z,50.10
2018-09-18T19:25:34.803Z,49.80
2018-09-18T19:28:09.135Z,50.50
2018-09-18T19:30:43.288Z,50.60
2018-09-18T19:33:17.632Z,50.90
2018-09-18T19:35:51.960Z,50.90
2018-09-18T19:38:26.120Z,51.10
2018-09-18T19:41:00.397Z,51.20
2018-09-18T19:43:34.717Z,51.20
2018-09-18T19:46:09.090Z,51.40
2018-09-18T19:48:43.440Z,51.60
2018-09-18T19:51:17.756Z,51.50
2018-09-18T19:53:52.103Z,51.80
2018-09-18T19:56:26.415Z,52.00
2018-09-18T19:59:00.775Z,52.10
2018-09-18T20:01:35.210Z,52.00
2018-09-18T20:04:09.771Z,52.40
2018-09-18T20:06:44.127Z,52.30
2018-09-18T20:09:18.474Z,52.50
2018-09-18T20:11:52.772Z,52.50
2018-09-18T20:14:26.971Z,52.60
2018-09-18T20:17:01.343Z,52.80
2018-09-18T20:19:35.824Z,52.80
2018-09-18T20:22:10.524Z,53.10
2018-09-18T20:24:44.827Z,53.10
2018-09-18T20:27:19.179Z,53.20
2018-09-18T20:29:53.489Z,53.20
2018-09-18T20:32:27.812Z,53.30
2018-09-18T20:35:02.250Z,53.40
2018-09-18T20:37:36.477Z,53.80
2018-09-18T20:40:10.859Z,53.60
2018-09-18T20:42:45.176Z,53.60
2018-09-18T20:45:19.520Z,53.80
2018-09-18T20:47:53.816Z,54.20
2018-09-18T20:50:28.112Z,54.00
2018-09-18T20:53:02.417Z,54.30
2018-09-18T20:55:36.799Z,54.20
2018-09-18T20:58:11.130Z,54.70
2018-09-18T21:00:45.386Z,54.70
2018-09-18T21:03:19.745Z,54.60
2018-09-18T21:05:54.056Z,54.60
2018-09-18T21:08:28.338Z,54.70
2018-09-18T21:11:02.647Z,54.30
2018-09-18T21:13:36.905Z,54.80
2018-09-18T21:16:11.206Z,54.80
2018-09-18T21:18:45.432Z,54.70
2018-09-18T21:21:19.736Z,54.80
2018-09-18T21:23:54.028Z,55.00
2018-09-18T21:26:28.335Z,54.90
2018-09-18T21:29:02.740Z,54.60
2018-09-18T21:31:37.065Z,54.80
2018-09-18T21:34:11.394Z,55.50
2018-09-18T21:36:45.864Z,55.80
2018-09-18T21:39:20.144Z,54.90
2018-09-18T21:41:54.453Z,55.30
2018-09-18T21:44:28.712Z,55.10
2018-09-18T21:47:03.038Z,55.20
2018-09-18T21:49:37.193Z,55.80
2018-09-18T21:52:11.463Z,55.60
2018-09-18T21:54:45.744Z,55.40
2018-09-18T21:57:19.956Z,55.60
2018-09-18T21:59:54.272Z,55.30
2018-09-18T22:02:28.471Z,55.50
2018-09-18T22:05:02.964Z,55.80
2018-09-18T22:07:37.210Z,55.50
2018-09-18T22:10:11.534Z,55.60
2018-09-18T22:12:45.832Z,55.80
2018-09-18T22:15:19.995Z,55.80
2018-09-18T22:17:54.357Z,55.70
2018-09-18T22:20:28.639Z,55.90
2018-09-18T22:23:02.927Z,55.90
2018-09-18T22:25:37.307Z,56.00
2018-09-18T22:28:11.552Z,56.00
2018-09-18T22:30:45.816Z,56.00
2018-09-18T22:33:20.133Z,56.10
2018-09-18T22:35:54.307Z,56.10
2018-09-18T22:38:28.637Z,56.10
2018-09-18T22:41:02.857Z,56.30
2018-09-18T22:43:37.068Z,56.10
2018-09-18T22:46:11.378Z,56.20
2018-09-18T22:48:45.746Z,56.30
2018-09-18T22:51:20.059Z,56.30
2018-09-18T22:53:54.295Z,56.40
2018-09-18T22:56:28.715Z,56.40
2018-09-18T22:59:03.081Z,56.50
2018-09-18T23:01:37.480Z,56.80
2018-09-18T23:04:11.832Z,56.70
2018-09-18T23:06:46.288Z,57.00
2018-09-18T23:09:20.526Z,56.90
2018-09-18T23:11:54.877Z,56.80
2018-09-18T23:14:29.504Z,56.90
2018-09-18T23:17:03.880Z,56.90
2018-09-18T23:19:38.196Z,56.90
2018-09-18T23:22:12.604Z,56.90
2018-09-18T23:24:47.072Z,56.90
2018-09-18T23:27:21.451Z,56.90
2018-09-18T23:29:55.719Z,57.00
2018-09-18T23:32:30.075Z,57.20
2018-09-18T23:35:04.339Z,57.30
2018-09-18T23:37:38.675Z,57.20
2018-09-18T23:40:13.048Z,57.30
2018-09-18T23:42:47.314Z,57.20
2018-09-18T23:45:21.671Z,57.50
2018-09-18T23:47:55.847Z,57.30
2018-09-18T23:50:30.135Z,57.20
2018-09-18T23:53:04.380Z,57.30
2018-09-18T23:55:38.712Z,57.30
2018-09-18T23:58:13.048Z,57.40
